sensor_id;sensor_type;location;lat;lon;timestamp;temperature;humidity
10123;DHT22;5101;49.038;8.710;2023-08-17T00:01:23;20.80;99.90
10123;DHT22;5101;49.038;8.710;2023-08-17T00:03:49;20.80;99.90
10123;DHT22;5101;49.038;8.710;2023-08-17T00:06:14;20.80;99.90
10123;DHT22;5101;49.038;8.710;2023-08-17T00:08:40;20.80;99.90
10123;DHT22;5101;49.038;8.710;2023-08-17T00:11:05;20.70;99.90
10123;DHT22;5101;49.038;8.710;2023-08-17T00:13:31;20.70;99.90
10123;DHT22;5101;49.038;8.710;2023-08-17T00:15:56;20.70;99.90
10123;DHT22;5101;49.038;8.710;2023-08-17T00:18:22;20.70;99.90
10123;DHT22;5101;49.038;8.710;2023-08-17T00:20:47;20.70;99.90
10123;DHT22;5101;49.038;8.710;2023-08-17T00:23:13;20.70;99.90
10123;DHT22;5101;49.038;8.710;2023-08-17T00:25:39;20.60;99.90
10123;DHT22;5101;49.038;8.710;2023-08-17T00:28:04;20.60;99.90
10123;DHT22;5101;49.038;8.710;2023-08-17T00:30:30;20.60;99.90
10123;DHT22;5101;49.038;8.710;2023-08-17T00:32:55;20.60;99.90
10123;DHT22;5101;49.038;8.710;2023-08-17T00:35:21;20.50;99.90
10123;DHT22;5101;49.038;8.710;2023-08-17T00:37:47;20.50;99.90
10123;DHT22;5101;49.038;8.710;2023-08-17T00:40:12;20.50;99.90
10123;DHT22;5101;49.038;8.710;2023-08-17T00:42:38;20.50;99.90
10123;DHT22;5101;49.038;8.710;2023-08-17T00:45:03;20.50;99.90
10123;DHT22;5101;49.038;8.710;2023-08-17T00:47:29;20.40;99.90
10123;DHT22;5101;49.038;8.710;2023-08-17T00:49:56;20.40;99.90
10123;DHT22;5101;49.038;8.710;2023-08-17T00:52:23;20.40;99.90
10123;DHT22;5101;49.038;8.710;2023-08-17T00:54:49;20.30;99.90
10123;DHT22;5101;49.038;8.710;2023-08-17T00:57:14;20.30;99.90
10123;DHT22;5101;49.038;8.710;2023-08-17T00:59:40;20.20;99.90
10123;DHT22;5101;49.038;8.710;2023-08-17T01:02:06;20.20;99.90
10123;DHT22;5101;49.038;8.710;2023-08-17T01:04:32;20.20;99.90
10123;DHT22;5101;49.038;8.710;2023-08-17T01:06:57;20.20;99.90
10123;DHT22;5101;49.038;8.710;2023-08-17T01:09:23;20.20;99.90
10123;DHT22;5101;49.038;8.710;2023-08-17T01:12:11;20.20;99.90
10123;DHT22;5101;49.038;8.710;2023-08-17T01:20:29;20.20;99.90
10123;DHT22;5101;49.038;8.710;2023-08-17T01:23:04;20.10;99.90
10123;DHT22;5101;49.038;8.710;2023-08-17T01:25:29;20.10;99.90
10123;DHT22;5101;49.038;8.710;2023-08-17T01:27:55;20.10;99.90
10123;DHT22;5101;49.038;8.710;2023-08-17T01:30:22;20.10;99.90
10123;DHT22;5101;49.038;8.710;2023-08-17T01:33:06;20.10;99.90
10123;DHT22;5101;49.038;8.710;2023-08-17T01:35:39;20.10;99.90
10123;DHT22;5101;49.038;8.710;2023-08-17T01:38:09;20.10;99.90
10123;DHT22;5101;49.038;8.710;2023-08-17T01:40:36;20.10;99.90
10123;DHT22;5101;49.038;8.710;2023-08-17T01:43:03;20.10;99.90
10123;DHT22;5101;49.038;8.710;2023-08-17T01:45:28;20.10;99.90
10123;DHT22;5101;49.038;8.710;2023-08-17T01:47:55;20.10;99.90
10123;DHT22;5101;49.038;8.710;2023-08-17T01:50:21;20.10;99.90
10123;DHT22;5101;49.038;8.710;2023-08-17T01:52:46;20.00;99.90
10123;DHT22;5101;49.038;8.710;2023-08-17T01:55:12;20.00;99.90
10123;DHT22;5101;49.038;8.710;2023-08-17T01:57:37;20.00;99.90
10123;DHT22;5101;49.038;8.710;2023-08-17T02:00:06;20.00;99.90
10123;DHT22;5101;49.038;8.710;2023-08-17T02:02:32;20.00;99.90
10123;DHT22;5101;49.038;8.710;2023-08-17T02:04:57;20.00;99.90
10123;DHT22;5101;49.038;8.710;2023-08-17T02:07:23;20.00;99.90
10123;DHT22;5101;49.038;8.710;2023-08-17T02:09:48;20.00;99.90
10123;DHT22;5101;49.038;8.710;2023-08-17T02:12:14;19.90;99.90
10123;DHT22;5101;49.038;8.710;2023-08-17T02:14:39;19.90;99.90
10123;DHT22;5101;49.038;8.710;2023-08-17T02:17:05;19.90;99.90
10123;DHT22;5101;49.038;8.710;2023-08-17T02:19:31;19.90;99.90
10123;DHT22;5101;49.038;8.710;2023-08-17T02:21:57;19.90;99.90
10123;DHT22;5101;49.038;8.710;2023-08-17T02:24:22;19.90;99.90
10123;DHT22;5101;49.038;8.710;2023-08-17T02:26:48;19.90;99.90
10123;DHT22;5101;49.038;8.710;2023-08-17T02:29:13;19.80;99.90
10123;DHT22;5101;49.038;8.710;2023-08-17T02:31:39;19.80;99.90
10123;DHT22;5101;49.038;8.710;2023-08-17T02:34:05;19.80;99.90
10123;DHT22;5101;49.038;8.710;2023-08-17T02:36:31;19.80;99.90
10123;DHT22;5101;49.038;8.710;2023-08-17T02:38:57;19.80;99.90
10123;DHT22;5101;49.038;8.710;2023-08-17T02:41:22;19.70;99.90
10123;DHT22;5101;49.038;8.710;2023-08-17T02:43:48;19.80;99.90
10123;DHT22;5101;49.038;8.710;2023-08-17T02:46:13;19.70;99.90
10123;DHT22;5101;49.038;8.710;2023-08-17T02:48:39;19.80;99.90
10123;DHT22;5101;49.038;8.710;2023-08-17T02:51:04;19.70;99.90
10123;DHT22;5101;49.038;8.710;2023-08-17T02:53:30;19.70;99.90
10123;DHT22;5101;49.038;8.710;2023-08-17T02:55:55;19.70;99.90
10123;DHT22;5101;49.038;8.710;2023-08-17T02:58:21;19.70;99.90
10123;DHT22;5101;49.038;8.710;2023-08-17T03:00:46;19.70;99.90
10123;DHT22;5101;49.038;8.710;2023-08-17T03:03:12;19.60;99.90
10123;DHT22;5101;49.038;8.710;2023-08-17T03:05:37;19.60;99.90
10123;DHT22;5101;49.038;8.710;2023-08-17T03:08:03;19.60;99.90
10123;DHT22;5101;49.038;8.710;2023-08-17T03:10:29;19.60;99.90
10123;DHT22;5101;49.038;8.710;2023-08-17T03:12:55;19.60;99.90
10123;DHT22;5101;49.038;8.710;2023-08-17T03:15:20;19.50;99.90
10123;DHT22;5101;49.038;8.710;2023-08-17T03:17:46;19.50;99.90
10123;DHT22;5101;49.038;8.710;2023-08-17T03:20:11;19.50;99.90
10123;DHT22;5101;49.038;8.710;2023-08-17T03:22:37;19.50;99.90
10123;DHT22;5101;49.038;8.710;2023-08-17T03:25:02;19.50;99.90
10123;DHT22;5101;49.038;8.710;2023-08-17T03:27:28;19.50;99.90
10123;DHT22;5101;49.038;8.710;2023-08-17T03:29:54;19.50;99.90
10123;DHT22;5101;49.038;8.710;2023-08-17T03:32:20;19.50;99.90
10123;DHT22;5101;49.038;8.710;2023-08-17T03:34:45;19.50;99.90
10123;DHT22;5101;49.038;8.710;2023-08-17T03:37:11;19.50;99.90
10123;DHT22;5101;49.038;8.710;2023-08-17T03:39:36;19.40;99.90
10123;DHT22;5101;49.038;8.710;2023-08-17T03:42:02;19.40;99.90
10123;DHT22;5101;49.038;8.710;2023-08-17T03:44:27;19.40;99.90
10123;DHT22;5101;49.038;8.710;2023-08-17T03:46:53;19.40;99.90
10123;DHT22;5101;49.038;8.710;2023-08-17T03:49:18;19.40;99.90
10123;DHT22;5101;49.038;8.710;2023-08-17T03:51:44;19.50;99.90
10123;DHT22;5101;49.038;8.710;2023-08-17T03:54:09;19.50;99.90
10123;DHT22;5101;49.038;8.710;2023-08-17T03:56:35;19.40;99.90
10123;DHT22;5101;49.038;8.710;2023-08-17T03:59:00;19.50;99.90
10123;DHT22;5101;49.038;8.710;2023-08-17T04:01:26;19.50;99.90
10123;DHT22;5101;49.038;8.710;2023-08-17T04:03:51;19.50;99.90
10123;DHT22;5101;49.038;8.710;2023-08-17T04:06:16;19.50;99.90
10123;DHT22;5101;49.038;8.710;2023-08-17T04:08:42;19.50;99.90
10123;DHT22;5101;49.038;8.710;2023-08-17T04:11:08;19.50;99.90
10123;DHT22;5101;49.038;8.710;2023-08-17T04:13:33;19.50;99.90
10123;DHT22;5101;49.038;8.710;2023-08-17T04:15:59;19.50;99.90
10123;DHT22;5101;49.038;8.710;2023-08-17T04:18:24;19.50;99.90
10123;DHT22;5101;49.038;8.710;2023-08-17T04:20:50;19.60;99.90
10123;DHT22;5101;49.038;8.710;2023-08-17T04:23:15;19.60;99.90
10123;DHT22;5101;49.038;8.710;2023-08-17T04:25:42;19.60;99.90
10123;DHT22;5101;49.038;8.710;2023-08-17T04:28:07;19.60;99.90
10123;DHT22;5101;49.038;8.710;2023-08-17T04:30:33;19.60;99.90
10123;DHT22;5101;49.038;8.710;2023-08-17T04:32:58;19.60;99.90
10123;DHT22;5101;49.038;8.710;2023-08-17T04:35:24;19.60;99.90
10123;DHT22;5101;49.038;8.710;2023-08-17T04:37:49;19.70;99.90
10123;DHT22;5101;49.038;8.710;2023-08-17T04:40:15;19.70;99.90
10123;DHT22;5101;49.038;8.710;2023-08-17T04:42:40;19.70;99.90
10123;DHT22;5101;49.038;8.710;2023-08-17T04:45:06;19.80;99.90
10123;DHT22;5101;49.038;8.710;2023-08-17T04:47:32;19.80;99.90
10123;DHT22;5101;49.038;8.710;2023-08-17T04:49:57;19.80;99.90
10123;DHT22;5101;49.038;8.710;2023-08-17T04:52:23;19.80;99.90
10123;DHT22;5101;49.038;8.710;2023-08-17T04:54:48;19.80;99.90
10123;DHT22;5101;49.038;8.710;2023-08-17T04:57:14;19.90;99.90
10123;DHT22;5101;49.038;8.710;2023-08-17T04:59:40;19.90;99.90
10123;DHT22;5101;49.038;8.710;2023-08-17T05:02:06;20.00;99.90
10123;DHT22;5101;49.038;8.710;2023-08-17T05:04:31;20.00;99.90
10123;DHT22;5101;49.038;8.710;2023-08-17T05:06:57;20.00;99.90
10123;DHT22;5101;49.038;8.710;2023-08-17T05:09:22;20.00;99.90
10123;DHT22;5101;49.038;8.710;2023-08-17T05:11:48;20.10;99.90
10123;DHT22;5101;49.038;8.710;2023-08-17T05:14:13;20.10;99.90
10123;DHT22;5101;49.038;8.710;2023-08-17T05:16:39;20.10;99.90
10123;DHT22;5101;49.038;8.710;2023-08-17T05:19:04;20.10;99.90
10123;DHT22;5101;49.038;8.710;2023-08-17T05:21:30;20.20;99.90
10123;DHT22;5101;49.038;8.710;2023-08-17T05:23:56;20.20;99.90
10123;DHT22;5101;49.038;8.710;2023-08-17T05:26:21;20.20;99.90
10123;DHT22;5101;49.038;8.710;2023-08-17T05:28:47;20.30;99.90
10123;DHT22;5101;49.038;8.710;2023-08-17T05:31:19;20.30;99.90
10123;DHT22;5101;49.038;8.710;2023-08-17T05:33:54;20.40;99.90
10123;DHT22;5101;49.038;8.710;2023-08-17T05:36:19;20.40;99.90
10123;DHT22;5101;49.038;8.710;2023-08-17T05:38:45;20.50;99.90
10123;DHT22;5101;49.038;8.710;2023-08-17T05:41:10;20.50;99.90
10123;DHT22;5101;49.038;8.710;2023-08-17T05:43:36;20.60;99.90
10123;DHT22;5101;49.038;8.710;2023-08-17T05:46:01;20.60;99.90
10123;DHT22;5101;49.038;8.710;2023-08-17T05:48:28;20.60;99.90
10123;DHT22;5101;49.038;8.710;2023-08-17T05:50:55;20.70;99.90
10123;DHT22;5101;49.038;8.710;2023-08-17T05:53:21;20.60;99.90
10123;DHT22;5101;49.038;8.710;2023-08-17T05:55:46;20.70;99.90
10123;DHT22;5101;49.038;8.710;2023-08-17T05:58:12;20.70;99.90
10123;DHT22;5101;49.038;8.710;2023-08-17T06:00:37;20.70;99.90
10123;DHT22;5101;49.038;8.710;2023-08-17T06:03:03;20.70;99.90
10123;DHT22;5101;49.038;8.710;2023-08-17T06:05:29;20.70;99.90
10123;DHT22;5101;49.038;8.710;2023-08-17T06:07:56;20.70;99.90
10123;DHT22;5101;49.038;8.710;2023-08-17T06:10:23;20.70;99.90
10123;DHT22;5101;49.038;8.710;2023-08-17T06:13:00;20.80;99.90
10123;DHT22;5101;49.038;8.710;2023-08-17T06:15:26;20.90;99.90
10123;DHT22;5101;49.038;8.710;2023-08-17T06:17:51;20.90;99.90
10123;DHT22;5101;49.038;8.710;2023-08-17T06:20:17;21.00;99.90
10123;DHT22;5101;49.038;8.710;2023-08-17T06:22:43;21.00;99.90
10123;DHT22;5101;49.038;8.710;2023-08-17T06:25:09;21.10;99.90
10123;DHT22;5101;49.038;8.710;2023-08-17T06:27:36;21.10;99.90
10123;DHT22;5101;49.038;8.710;2023-08-17T06:30:02;21.10;99.90
10123;DHT22;5101;49.038;8.710;2023-08-17T06:32:29;21.20;99.90
10123;DHT22;5101;49.038;8.710;2023-08-17T06:34:54;21.20;99.90
10123;DHT22;5101;49.038;8.710;2023-08-17T06:37:20;21.30;99.90
10123;DHT22;5101;49.038;8.710;2023-08-17T06:39:45;21.30;99.90
10123;DHT22;5101;49.038;8.710;2023-08-17T06:42:11;21.40;99.90
10123;DHT22;5101;49.038;8.710;2023-08-17T06:44:36;21.40;99.90
10123;DHT22;5101;49.038;8.710;2023-08-17T06:47:02;21.40;99.90
10123;DHT22;5101;49.038;8.710;2023-08-17T06:49:28;21.40;99.90
10123;DHT22;5101;49.038;8.710;2023-08-17T06:51:53;21.50;99.90
10123;DHT22;5101;49.038;8.710;2023-08-17T06:54:19;21.50;99.90
10123;DHT22;5101;49.038;8.710;2023-08-17T06:56:45;21.50;99.90
10123;DHT22;5101;49.038;8.710;2023-08-17T06:59:10;21.60;99.90
10123;DHT22;5101;49.038;8.710;2023-08-17T07:01:35;21.60;99.90
10123;DHT22;5101;49.038;8.710;2023-08-17T07:04:01;21.60;99.90
10123;DHT22;5101;49.038;8.710;2023-08-17T07:06:27;21.60;99.90
10123;DHT22;5101;49.038;8.710;2023-08-17T07:08:54;21.70;99.90
10123;DHT22;5101;49.038;8.710;2023-08-17T07:11:19;21.70;99.90
10123;DHT22;5101;49.038;8.710;2023-08-17T07:13:45;21.80;99.90
10123;DHT22;5101;49.038;8.710;2023-08-17T07:16:10;21.90;99.90
10123;DHT22;5101;49.038;8.710;2023-08-17T07:18:36;21.90;99.90
10123;DHT22;5101;49.038;8.710;2023-08-17T07:21:01;22.00;99.90
10123;DHT22;5101;49.038;8.710;2023-08-17T07:23:27;22.10;99.90
10123;DHT22;5101;49.038;8.710;2023-08-17T07:25:52;22.10;99.90
10123;DHT22;5101;49.038;8.710;2023-08-17T07:28:18;22.10;99.90
10123;DHT22;5101;49.038;8.710;2023-08-17T07:30:43;22.10;99.90
10123;DHT22;5101;49.038;8.710;2023-08-17T07:33:09;22.10;99.90
10123;DHT22;5101;49.038;8.710;2023-08-17T07:35:34;22.30;99.90
10123;DHT22;5101;49.038;8.710;2023-08-17T07:38:00;22.30;99.90
10123;DHT22;5101;49.038;8.710;2023-08-17T07:40:25;22.40;99.90
10123;DHT22;5101;49.038;8.710;2023-08-17T07:42:51;22.40;99.90
10123;DHT22;5101;49.038;8.710;2023-08-17T07:45:17;22.50;99.90
10123;DHT22;5101;49.038;8.710;2023-08-17T07:47:42;22.60;99.90
10123;DHT22;5101;49.038;8.710;2023-08-17T07:50:08;22.60;99.90
10123;DHT22;5101;49.038;8.710;2023-08-17T07:52:34;22.60;99.90
10123;DHT22;5101;49.038;8.710;2023-08-17T07:54:59;22.70;99.90
10123;DHT22;5101;49.038;8.710;2023-08-17T07:57:25;22.70;99.90
10123;DHT22;5101;49.038;8.710;2023-08-17T07:59:50;22.80;99.90
10123;DHT22;5101;49.038;8.710;2023-08-17T08:02:17;22.90;99.90
10123;DHT22;5101;49.038;8.710;2023-08-17T08:04:42;22.90;99.90
10123;DHT22;5101;49.038;8.710;2023-08-17T08:07:08;23.00;99.90
10123;DHT22;5101;49.038;8.710;2023-08-17T08:09:34;23.10;99.90
10123;DHT22;5101;49.038;8.710;2023-08-17T08:11:59;23.20;99.90
10123;DHT22;5101;49.038;8.710;2023-08-17T08:14:25;23.20;99.90
10123;DHT22;5101;49.038;8.710;2023-08-17T08:16:50;23.10;99.90
10123;DHT22;5101;49.038;8.710;2023-08-17T08:19:16;23.20;99.90
10123;DHT22;5101;49.038;8.710;2023-08-17T08:21:41;23.20;99.90
10123;DHT22;5101;49.038;8.710;2023-08-17T08:24:07;23.30;99.90
10123;DHT22;5101;49.038;8.710;2023-08-17T08:26:32;23.40;99.90
10123;DHT22;5101;49.038;8.710;2023-08-17T08:28:58;23.60;99.90
10123;DHT22;5101;49.038;8.710;2023-08-17T08:31:23;23.70;99.90
10123;DHT22;5101;49.038;8.710;2023-08-17T08:33:49;23.80;99.90
10123;DHT22;5101;49.038;8.710;2023-08-17T08:36:14;24.00;99.90
10123;DHT22;5101;49.038;8.710;2023-08-17T08:38:40;24.10;99.90
10123;DHT22;5101;49.038;8.710;2023-08-17T08:41:07;24.10;99.90
10123;DHT22;5101;49.038;8.710;2023-08-17T08:43:33;24.20;99.90
10123;DHT22;5101;49.038;8.710;2023-08-17T08:45:59;24.40;99.90
10123;DHT22;5101;49.038;8.710;2023-08-17T08:48:26;24.50;99.90
10123;DHT22;5101;49.038;8.710;2023-08-17T08:50:54;24.70;99.90
10123;DHT22;5101;49.038;8.710;2023-08-17T08:53:31;24.90;99.90
10123;DHT22;5101;49.038;8.710;2023-08-17T08:55:59;25.20;99.90
10123;DHT22;5101;49.038;8.710;2023-08-17T08:58:26;25.40;99.90
10123;DHT22;5101;49.038;8.710;2023-08-17T09:00:52;25.70;99.90
10123;DHT22;5101;49.038;8.710;2023-08-17T09:03:19;25.90;99.90
10123;DHT22;5101;49.038;8.710;2023-08-17T09:05:49;26.30;99.90
10123;DHT22;5101;49.038;8.710;2023-08-17T09:08:21;26.70;99.90
10123;DHT22;5101;49.038;8.710;2023-08-17T09:10:46;27.10;99.90
10123;DHT22;5101;49.038;8.710;2023-08-17T09:13:12;27.40;99.60
10123;DHT22;5101;49.038;8.710;2023-08-17T09:15:38;27.80;98.60
10123;DHT22;5101;49.038;8.710;2023-08-17T09:18:05;28.10;97.20
10123;DHT22;5101;49.038;8.710;2023-08-17T09:20:37;28.30;95.70
10123;DHT22;5101;49.038;8.710;2023-08-17T09:23:13;28.50;95.00
10123;DHT22;5101;49.038;8.710;2023-08-17T09:25:40;28.70;94.70
10123;DHT22;5101;49.038;8.710;2023-08-17T09:28:07;28.90;94.10
10123;DHT22;5101;49.038;8.710;2023-08-17T09:33:28;29.40;92.70
10123;DHT22;5101;49.038;8.710;2023-08-17T09:35:55;29.40;92.20
10123;DHT22;5101;49.038;8.710;2023-08-17T09:38:21;29.60;91.70
10123;DHT22;5101;49.038;8.710;2023-08-17T09:40:48;29.60;91.30
10123;DHT22;5101;49.038;8.710;2023-08-17T09:43:17;29.70;91.00
10123;DHT22;5101;49.038;8.710;2023-08-17T09:45:44;29.80;90.90
10123;DHT22;5101;49.038;8.710;2023-08-17T09:48:15;30.00;90.80
10123;DHT22;5101;49.038;8.710;2023-08-17T09:50:42;30.30;90.60
10123;DHT22;5101;49.038;8.710;2023-08-17T09:53:15;30.40;89.40
10123;DHT22;5101;49.038;8.710;2023-08-17T09:55:42;30.70;87.50
10123;DHT22;5101;49.038;8.710;2023-08-17T09:58:08;30.90;87.20
10123;DHT22;5101;49.038;8.710;2023-08-17T10:00:34;31.20;86.00
10123;DHT22;5101;49.038;8.710;2023-08-17T10:03:02;31.40;84.50
10123;DHT22;5101;49.038;8.710;2023-08-17T10:05:32;31.60;82.90
10123;DHT22;5101;49.038;8.710;2023-08-17T10:08:00;31.90;83.50
10123;DHT22;5101;49.038;8.710;2023-08-17T10:10:26;32.00;82.30
10123;DHT22;5101;49.038;8.710;2023-08-17T10:15:37;32.30;81.50
10123;DHT22;5101;49.038;8.710;2023-08-17T10:18:31;32.50;80.50
10123;DHT22;5101;49.038;8.710;2023-08-17T10:21:01;32.80;80.40
10123;DHT22;5101;49.038;8.710;2023-08-17T10:23:28;32.90;78.70
10123;DHT22;5101;49.038;8.710;2023-08-17T10:25:54;33.00;77.10
10123;DHT22;5101;49.038;8.710;2023-08-17T10:28:21;33.20;76.80
10123;DHT22;5101;49.038;8.710;2023-08-17T10:30:47;33.30;76.70
10123;DHT22;5101;49.038;8.710;2023-08-17T10:33:14;33.50;76.30
10123;DHT22;5101;49.038;8.710;2023-08-17T10:35:41;33.30;74.50
10123;DHT22;5101;49.038;8.710;2023-08-17T10:38:07;33.10;74.90
10123;DHT22;5101;49.038;8.710;2023-08-17T10:40:37;33.10;75.30
10123;DHT22;5101;49.038;8.710;2023-08-17T10:43:04;33.30;75.00
10123;DHT22;5101;49.038;8.710;2023-08-17T10:50:37;33.00;74.20
10123;DHT22;5101;49.038;8.710;2023-08-17T10:53:05;32.90;74.80
10123;DHT22;5101;49.038;8.710;2023-08-17T10:55:41;32.80;75.00
10123;DHT22;5101;49.038;8.710;2023-08-17T10:58:07;32.80;75.10
10123;DHT22;5101;49.038;8.710;2023-08-17T11:00:37;32.90;75.60
10123;DHT22;5101;49.038;8.710;2023-08-17T11:03:38;32.90;75.10
10123;DHT22;5101;49.038;8.710;2023-08-17T11:05:57;32.80;75.30
10123;DHT22;5101;49.038;8.710;2023-08-17T11:08:31;32.70;74.90
10123;DHT22;5101;49.038;8.710;2023-08-17T11:11:04;32.70;75.80
10123;DHT22;5101;49.038;8.710;2023-08-17T11:13:36;32.70;75.70
10123;DHT22;5101;49.038;8.710;2023-08-17T11:16:03;32.80;75.90
10123;DHT22;5101;49.038;8.710;2023-08-17T11:18:29;32.70;75.40
10123;DHT22;5101;49.038;8.710;2023-08-17T11:20:55;32.70;75.70
10123;DHT22;5101;49.038;8.710;2023-08-17T11:23:22;32.70;75.00
10123;DHT22;5101;49.038;8.710;2023-08-17T11:25:48;32.60;75.40
10123;DHT22;5101;49.038;8.710;2023-08-17T11:28:13;32.40;75.40
10123;DHT22;5101;49.038;8.710;2023-08-17T11:30:40;32.30;75.20
10123;DHT22;5101;49.038;8.710;2023-08-17T11:33:06;32.20;75.30
10123;DHT22;5101;49.038;8.710;2023-08-17T11:35:32;32.00;75.50
10123;DHT22;5101;49.038;8.710;2023-08-17T11:37:58;31.70;75.90
10123;DHT22;5101;49.038;8.710;2023-08-17T11:40:25;31.60;76.10
10123;DHT22;5101;49.038;8.710;2023-08-17T11:42:51;31.50;77.00
10123;DHT22;5101;49.038;8.710;2023-08-17T11:45:18;31.30;76.10
10123;DHT22;5101;49.038;8.710;2023-08-17T11:47:43;31.10;77.50
10123;DHT22;5101;49.038;8.710;2023-08-17T11:50:10;30.80;77.40
10123;DHT22;5101;49.038;8.710;2023-08-17T11:52:37;30.70;78.90
10123;DHT22;5101;49.038;8.710;2023-08-17T11:55:07;30.70;78.30
10123;DHT22;5101;49.038;8.710;2023-08-17T11:57:33;30.50;78.70
10123;DHT22;5101;49.038;8.710;2023-08-17T12:00:00;30.40;79.80
10123;DHT22;5101;49.038;8.710;2023-08-17T12:02:27;30.30;80.90
10123;DHT22;5101;49.038;8.710;2023-08-17T12:04:54;30.10;82.30
10123;DHT22;5101;49.038;8.710;2023-08-17T12:07:21;29.90;82.80
10123;DHT22;5101;49.038;8.710;2023-08-17T12:09:48;29.80;84.10
10123;DHT22;5101;49.038;8.710;2023-08-17T12:12:17;29.60;84.60
10123;DHT22;5101;49.038;8.710;2023-08-17T12:14:43;29.50;85.00
10123;DHT22;5101;49.038;8.710;2023-08-17T12:17:18;29.30;85.80
10123;DHT22;5101;49.038;8.710;2023-08-17T12:19:48;29.10;86.50
10123;DHT22;5101;49.038;8.710;2023-08-17T12:22:14;28.90;87.10
10123;DHT22;5101;49.038;8.710;2023-08-17T12:24:40;28.70;87.80
10123;DHT22;5101;49.038;8.710;2023-08-17T12:27:06;28.60;89.50
10123;DHT22;5101;49.038;8.710;2023-08-17T12:29:31;28.50;89.80
10123;DHT22;5101;49.038;8.710;2023-08-17T12:31:58;28.30;90.20
10123;DHT22;5101;49.038;8.710;2023-08-17T12:34:23;28.30;90.30
10123;DHT22;5101;49.038;8.710;2023-08-17T12:36:49;28.10;90.70
10123;DHT22;5101;49.038;8.710;2023-08-17T12:39:15;28.10;91.20
10123;DHT22;5101;49.038;8.710;2023-08-17T12:41:40;28.00;91.50
10123;DHT22;5101;49.038;8.710;2023-08-17T12:44:06;27.80;91.90
10123;DHT22;5101;49.038;8.710;2023-08-17T12:46:32;27.70;92.20
10123;DHT22;5101;49.038;8.710;2023-08-17T12:48:59;27.60;92.60
10123;DHT22;5101;49.038;8.710;2023-08-17T12:51:25;27.60;92.70
10123;DHT22;5101;49.038;8.710;2023-08-17T12:53:50;27.50;92.70
10123;DHT22;5101;49.038;8.710;2023-08-17T12:56:16;27.40;93.30
10123;DHT22;5101;49.038;8.710;2023-08-17T12:58:41;27.40;93.90
10123;DHT22;5101;49.038;8.710;2023-08-17T13:01:07;27.50;93.90
10123;DHT22;5101;49.038;8.710;2023-08-17T13:03:32;27.50;93.90
10123;DHT22;5101;49.038;8.710;2023-08-17T13:05:58;27.50;94.20
10123;DHT22;5101;49.038;8.710;2023-08-17T13:08:23;27.50;94.50
10123;DHT22;5101;49.038;8.710;2023-08-17T13:10:49;27.60;94.60
10123;DHT22;5101;49.038;8.710;2023-08-17T13:13:14;27.60;94.80
10123;DHT22;5101;49.038;8.710;2023-08-17T13:15:40;27.70;94.70
10123;DHT22;5101;49.038;8.710;2023-08-17T13:18:07;27.70;94.50
10123;DHT22;5101;49.038;8.710;2023-08-17T13:20:32;27.70;94.10
10123;DHT22;5101;49.038;8.710;2023-08-17T13:22:58;27.80;94.10
10123;DHT22;5101;49.038;8.710;2023-08-17T13:25:24;27.80;93.90
10123;DHT22;5101;49.038;8.710;2023-08-17T13:27:49;27.80;93.80
10123;DHT22;5101;49.038;8.710;2023-08-17T13:30:15;27.80;93.90
10123;DHT22;5101;49.038;8.710;2023-08-17T13:32:40;27.80;93.80
10123;DHT22;5101;49.038;8.710;2023-08-17T13:35:06;27.90;93.80
10123;DHT22;5101;49.038;8.710;2023-08-17T13:37:32;27.90;93.70
10123;DHT22;5101;49.038;8.710;2023-08-17T13:39:57;28.00;93.30
10123;DHT22;5101;49.038;8.710;2023-08-17T13:42:24;28.00;93.30
10123;DHT22;5101;49.038;8.710;2023-08-17T13:44:49;27.90;93.00
10123;DHT22;5101;49.038;8.710;2023-08-17T13:47:14;27.90;92.70
10123;DHT22;5101;49.038;8.710;2023-08-17T13:49:40;28.00;92.80
10123;DHT22;5101;49.038;8.710;2023-08-17T13:52:06;28.00;92.70
10123;DHT22;5101;49.038;8.710;2023-08-17T13:54:32;28.00;92.90
10123;DHT22;5101;49.038;8.710;2023-08-17T13:56:57;27.90;93.00
10123;DHT22;5101;49.038;8.710;2023-08-17T13:59:23;28.00;93.00
10123;DHT22;5101;49.038;8.710;2023-08-17T14:01:48;28.00;92.80
10123;DHT22;5101;49.038;8.710;2023-08-17T14:04:14;28.10;92.60
10123;DHT22;5101;49.038;8.710;2023-08-17T14:06:41;28.20;92.40
10123;DHT22;5101;49.038;8.710;2023-08-17T14:09:06;28.20;92.40
10123;DHT22;5101;49.038;8.710;2023-08-17T14:11:32;28.30;92.40
10123;DHT22;5101;49.038;8.710;2023-08-17T14:13:58;28.20;92.30
10123;DHT22;5101;49.038;8.710;2023-08-17T14:16:23;28.00;92.30
10123;DHT22;5101;49.038;8.710;2023-08-17T14:18:49;28.00;92.30
10123;DHT22;5101;49.038;8.710;2023-08-17T14:21:14;28.00;92.30
10123;DHT22;5101;49.038;8.710;2023-08-17T14:23:40;28.10;92.60
10123;DHT22;5101;49.038;8.710;2023-08-17T14:26:05;28.20;92.60
10123;DHT22;5101;49.038;8.710;2023-08-17T14:28:31;28.30;92.40
10123;DHT22;5101;49.038;8.710;2023-08-17T14:30:57;28.40;92.40
10123;DHT22;5101;49.038;8.710;2023-08-17T14:33:22;28.40;92.30
10123;DHT22;5101;49.038;8.710;2023-08-17T14:35:48;28.50;92.50
10123;DHT22;5101;49.038;8.710;2023-08-17T14:38:14;28.60;92.50
10123;DHT22;5101;49.038;8.710;2023-08-17T14:40:43;28.60;92.20
10123;DHT22;5101;49.038;8.710;2023-08-17T14:43:10;28.70;92.00
10123;DHT22;5101;49.038;8.710;2023-08-17T14:45:37;28.80;90.90
10123;DHT22;5101;49.038;8.710;2023-08-17T14:48:03;28.80;90.70
10123;DHT22;5101;49.038;8.710;2023-08-17T14:50:29;28.90;90.50
10123;DHT22;5101;49.038;8.710;2023-08-17T14:52:55;28.90;90.50
10123;DHT22;5101;49.038;8.710;2023-08-17T14:55:20;29.00;90.40
10123;DHT22;5101;49.038;8.710;2023-08-17T14:57:46;29.00;90.60
10123;DHT22;5101;49.038;8.710;2023-08-17T15:00:12;29.00;91.10
10123;DHT22;5101;49.038;8.710;2023-08-17T15:02:38;29.20;91.20
10123;DHT22;5101;49.038;8.710;2023-08-17T15:05:05;29.30;91.20
10123;DHT22;5101;49.038;8.710;2023-08-17T15:07:31;29.30;90.80
10123;DHT22;5101;49.038;8.710;2023-08-17T15:09:56;29.40;90.50
10123;DHT22;5101;49.038;8.710;2023-08-17T15:12:22;29.50;90.30
10123;DHT22;5101;49.038;8.710;2023-08-17T15:14:47;29.60;90.10
10123;DHT22;5101;49.038;8.710;2023-08-17T15:17:13;29.60;89.50
10123;DHT22;5101;49.038;8.710;2023-08-17T15:19:38;29.70;89.00
10123;DHT22;5101;49.038;8.710;2023-08-17T15:22:04;29.70;88.30
10123;DHT22;5101;49.038;8.710;2023-08-17T15:24:29;29.80;89.30
10123;DHT22;5101;49.038;8.710;2023-08-17T15:26:55;29.80;89.50
10123;DHT22;5101;49.038;8.710;2023-08-17T15:29:20;29.90;90.00
10123;DHT22;5101;49.038;8.710;2023-08-17T15:31:46;29.90;90.00
10123;DHT22;5101;49.038;8.710;2023-08-17T15:34:11;29.90;89.10
10123;DHT22;5101;49.038;8.710;2023-08-17T15:36:37;29.80;88.10
10123;DHT22;5101;49.038;8.710;2023-08-17T15:39:02;29.70;87.70
10123;DHT22;5101;49.038;8.710;2023-08-17T15:41:28;29.50;87.80
10123;DHT22;5101;49.038;8.710;2023-08-17T15:43:53;29.60;87.50
10123;DHT22;5101;49.038;8.710;2023-08-17T15:46:20;29.60;87.90
10123;DHT22;5101;49.038;8.710;2023-08-17T15:48:46;29.60;87.80
10123;DHT22;5101;49.038;8.710;2023-08-17T15:51:11;29.60;87.90
10123;DHT22;5101;49.038;8.710;2023-08-17T15:53:37;29.60;88.80
10123;DHT22;5101;49.038;8.710;2023-08-17T15:56:04;29.60;90.00